createdAt,value
2022-08-24T00:01:00.440Z,94433.00
2022-08-24T00:05:03.599Z,94436.00
2022-08-24T00:09:05.859Z,94426.00
2022-08-24T00:13:09.365Z,94434.00
2022-08-24T00:17:12.358Z,94421.00
2022-08-24T00:21:14.526Z,94429.00
2022-08-24T00:25:17.576Z,94416.00
2022-08-24T00:29:21.679Z,94422.00
2022-08-24T00:33:24.116Z,94409.00
2022-08-24T00:37:28.831Z,94406.00
2022-08-24T00:41:31.565Z,94410.00
2022-08-24T00:45:48.740Z,94411.00
2022-08-24T00:49:56.746Z,94414.00
2022-08-24T00:54:04.898Z,94413.00
2022-08-24T00:58:17.157Z,94409.00
2022-08-24T01:02:26.709Z,94427.00
2022-08-24T01:06:29.463Z,94428.00
2022-08-24T01:10:38.076Z,94423.00
2022-08-24T01:14:40.350Z,94425.00
2022-08-24T01:18:51.827Z,94422.00
2022-08-24T01:23:08.087Z,94418.00
2022-08-24T01:27:12.048Z,94436.00
2022-08-24T01:31:14.711Z,94432.00
2022-08-24T01:35:17.211Z,94440.00
2022-08-24T01:39:37.946Z,94436.00
2022-08-24T01:43:40.231Z,94439.00
2022-08-24T01:47:43.063Z,94442.00
2022-08-24T01:51:46.534Z,94447.00
2022-08-24T01:55:48.973Z,94436.00
2022-08-24T01:59:52.616Z,94435.00
2022-08-24T02:03:56.317Z,94443.00
2022-08-24T02:07:58.443Z,94447.00
2022-08-24T02:12:00.741Z,94444.00
2022-08-24T02:16:03.468Z,94443.00
2022-08-24T02:20:09.192Z,94442.00
2022-08-24T02:24:11.997Z,94459.00
2022-08-24T02:28:14.567Z,94454.00
2022-08-24T02:32:16.870Z,94456.00
2022-08-24T02:36:25.079Z,94457.00
2022-08-24T02:40:32.833Z,94452.00
2022-08-24T02:44:36.045Z,94461.00
2022-08-24T02:48:38.299Z,94469.00
2022-08-24T02:52:42.284Z,94468.00
2022-08-24T02:56:45.723Z,94461.00
2022-08-24T03:00:48.853Z,94451.00
2022-08-24T03:04:54.303Z,94457.00
2022-08-24T03:08:57.034Z,94459.00
2022-08-24T03:13:01.555Z,94458.00
2022-08-24T03:17:04.428Z,94456.00
2022-08-24T03:21:06.789Z,94470.00
2022-08-24T03:25:16.976Z,94470.00
2022-08-24T03:29:20.461Z,94471.00
2022-08-24T03:33:27.149Z,94470.00
2022-08-24T03:37:29.783Z,94468.00
2022-08-24T03:41:35.353Z,94476.00
2022-08-24T03:45:39.579Z,94475.00
2022-08-24T03:49:42.444Z,94471.00
2022-08-24T03:53:45.575Z,94470.00
2022-08-24T03:57:48.021Z,94462.00
2022-08-24T04:01:51.177Z,94463.00
2022-08-24T04:05:53.108Z,94464.00
2022-08-24T04:09:55.498Z,94453.00
2022-08-24T04:13:58.985Z,94459.00
2022-08-24T04:18:01.197Z,94461.00
2022-08-24T04:22:03.718Z,94468.00
2022-08-24T04:26:06.520Z,94471.00
2022-08-24T04:30:09.808Z,94468.00
2022-08-24T04:34:32.194Z,94458.00
2022-08-24T04:38:35.032Z,94454.00
2022-08-24T04:43:09.762Z,94467.00
2022-08-24T04:47:13.191Z,94469.00
2022-08-24T04:51:18.589Z,94472.00
2022-08-24T04:55:20.640Z,94477.00
2022-08-24T04:59:22.773Z,94487.00
2022-08-24T05:03:25.216Z,94484.00
2022-08-24T05:07:27.438Z,94491.00
2022-08-24T05:11:29.593Z,94479.00
2022-08-24T05:15:32.556Z,94480.00
2022-08-24T05:19:34.914Z,94472.00
2022-08-24T05:23:39.069Z,94477.00
2022-08-24T05:27:47.589Z,94487.00
2022-08-24T05:31:50.262Z,94479.00
2022-08-24T05:35:52.824Z,94487.00
2022-08-24T05:39:55.179Z,94488.00
2022-08-24T05:43:57.521Z,94489.00
2022-08-24T05:48:00.424Z,94491.00
2022-08-24T05:52:22.546Z,94491.00
2022-08-24T05:56:27.697Z,94483.00
2022-08-24T06:00:34.235Z,94478.00
2022-08-24T06:04:38.323Z,94480.00
2022-08-24T06:08:44.495Z,94479.00
2022-08-24T06:12:47.548Z,94476.00
2022-08-24T06:16:50.321Z,94477.00
2022-08-24T06:20:52.701Z,94481.00
2022-08-24T06:25:18.426Z,94477.00
2022-08-24T06:29:21.720Z,94474.00
2022-08-24T06:33:29.093Z,94475.00
2022-08-24T06:37:33.476Z,94476.00
2022-08-24T06:41:37.801Z,94481.00
2022-08-24T06:45:45.167Z,94488.00
2022-08-24T06:49:49.716Z,94492.00
2022-08-24T06:53:52.152Z,94491.00
2022-08-24T06:57:55.484Z,94503.00
2022-08-24T07:01:58.391Z,94498.00
2022-08-24T07:06:04.711Z,94510.00
2022-08-24T07:10:11.642Z,94504.00
2022-08-24T07:14:14.244Z,94504.00
2022-08-24T07:18:19.975Z,94504.00
2022-08-24T07:22:24.025Z,94491.00
2022-08-24T07:26:30.202Z,94487.00
2022-08-24T07:30:32.666Z,94496.00
2022-08-24T07:34:36.196Z,94492.00
2022-08-24T07:38:39.237Z,94495.00
2022-08-24T07:42:41.629Z,94499.00
2022-08-24T07:46:44.065Z,94508.00
2022-08-24T07:50:48.218Z,94506.00
2022-08-24T07:54:50.544Z,94517.00
2022-08-24T07:58:54.412Z,94520.00
2022-08-24T08:02:58.286Z,94534.00
2022-08-24T08:07:03.411Z,94526.00
2022-08-24T08:11:09.346Z,94523.00
2022-08-24T08:15:12.801Z,94522.00
2022-08-24T08:19:22.839Z,94520.00
2022-08-24T08:24:03.983Z,94530.00
2022-08-24T08:28:25.372Z,94522.00
2022-08-24T08:32:29.751Z,94532.00
2022-08-24T08:36:32.796Z,94523.00
2022-08-24T08:40:56.546Z,94526.00
2022-08-24T08:45:07.117Z,94523.00
2022-08-24T08:49:35.826Z,94529.00
2022-08-24T08:54:24.159Z,94527.00
2022-08-24T08:58:57.413Z,94536.00
2022-08-24T09:03:08.814Z,94548.00
2022-08-24T09:07:27.713Z,94556.00
2022-08-24T09:11:53.077Z,94561.00
2022-08-24T09:16:26.743Z,94563.00
2022-08-24T09:21:01.949Z,94557.00
2022-08-24T09:25:28.914Z,94555.00
2022-08-24T09:30:09.973Z,94566.00
2022-08-24T09:34:34.954Z,94569.00
2022-08-24T09:39:07.808Z,94569.00
2022-08-24T09:43:38.879Z,94576.00
2022-08-24T09:48:15.914Z,94571.00
2022-08-24T09:52:40.687Z,94557.00
2022-08-24T09:57:09.351Z,94568.00
2022-08-24T10:01:23.426Z,94567.00
2022-08-24T10:05:51.328Z,94560.00
2022-08-24T10:10:12.711Z,94569.00
2022-08-24T10:14:36.877Z,94567.00
2022-08-24T10:18:45.581Z,94563.00
2022-08-24T10:22:47.844Z,94559.00
2022-08-24T10:27:06.696Z,94568.00
2022-08-24T10:31:13.143Z,94560.00
2022-08-24T10:35:26.177Z,94552.00
2022-08-24T10:39:50.732Z,94548.00
2022-08-24T10:44:11.392Z,94549.00
2022-08-24T10:48:33.455Z,94541.00
2022-08-24T10:53:18.817Z,94539.00
2022-08-24T10:57:39.443Z,94542.00
2022-08-24T11:02:00.444Z,94536.00
2022-08-24T11:06:15.364Z,94546.00
2022-08-24T11:10:29.115Z,94537.00
2022-08-24T11:14:32.132Z,94534.00
2022-08-24T11:18:52.529Z,94539.00
2022-08-24T11:22:57.833Z,94550.00
2022-08-24T11:27:18.771Z,94545.00
2022-08-24T11:31:40.317Z,94545.00
2022-08-24T11:35:42.296Z,94544.00
2022-08-24T11:39:44.496Z,94543.00
2022-08-24T11:44:18.342Z,94544.00
2022-08-24T11:48:54.441Z,94536.00
2022-08-24T11:53:24.368Z,94533.00
2022-08-24T11:57:38.400Z,94533.00
2022-08-24T12:01:56.088Z,94541.00
2022-08-24T12:06:13.634Z,94555.00
2022-08-24T12:10:19.387Z,94548.00
2022-08-24T12:15:02.038Z,94549.00
2022-08-24T12:19:35.655Z,94554.00
2022-08-24T12:23:40.601Z,94553.00
2022-08-24T12:27:43.318Z,94556.00
2022-08-24T12:31:56.295Z,94546.00
2022-08-24T12:36:06.930Z,94549.00
2022-08-24T12:40:23.773Z,94552.00
2022-08-24T12:44:35.808Z,94552.00
2022-08-24T12:48:43.954Z,94549.00
2022-08-24T12:52:52.207Z,94549.00
2022-08-24T12:57:31.732Z,94543.00
2022-08-24T13:01:41.116Z,94543.00
2022-08-24T13:05:48.778Z,94542.00
2022-08-24T13:09:54.019Z,94537.00
2022-08-24T13:14:18.712Z,94542.00
2022-08-24T13:18:20.817Z,94549.00
2022-08-24T13:22:47.321Z,94537.00
2022-08-24T13:26:49.626Z,94530.00
2022-08-24T13:31:23.165Z,94530.00
2022-08-24T13:35:53.919Z,94532.00
2022-08-24T13:40:09.759Z,94529.00
2022-08-24T13:44:32.985Z,94535.00
2022-08-24T13:48:47.675Z,94531.00
2022-08-24T13:53:08.376Z,94525.00
2022-08-24T13:57:34.967Z,94534.00
2022-08-24T14:02:02.206Z,94539.00
2022-08-24T14:06:55.571Z,94536.00
2022-08-24T14:11:15.844Z,94530.00
2022-08-24T14:16:16.213Z,94534.00
2022-08-24T14:20:55.856Z,94527.00
2022-08-24T14:25:33.223Z,94532.00
2022-08-24T14:29:42.026Z,94523.00
2022-08-24T14:33:54.900Z,94525.00
2022-08-24T14:38:32.571Z,94525.00
2022-08-24T14:42:45.580Z,94517.00
2022-08-24T14:47:26.566Z,94521.00
2022-08-24T14:51:56.727Z,94518.00
2022-08-24T14:56:19.975Z,94517.00
2022-08-24T15:00:47.290Z,94517.00
2022-08-24T15:05:08.927Z,94516.00
2022-08-24T15:09:28.074Z,94518.00
2022-08-24T15:13:58.496Z,94524.00
2022-08-24T15:18:08.455Z,94511.00
2022-08-24T15:22:28.152Z,94514.00
2022-08-24T15:26:52.289Z,94507.00
2022-08-24T15:31:08.317Z,94511.00
2022-08-24T15:35:34.885Z,94509.00
2022-08-24T15:39:39.052Z,94502.00
2022-08-24T15:43:51.059Z,94504.00
2022-08-24T15:48:01.765Z,94503.00
2022-08-24T15:52:09.961Z,94515.00
2022-08-24T15:56:40.672Z,94514.00
2022-08-24T16:01:05.089Z,94508.00
2022-08-24T16:05:25.371Z,94514.00
2022-08-24T16:09:29.895Z,94519.00
2022-08-24T16:13:33.616Z,94520.00
2022-08-24T16:17:53.942Z,94506.00
2022-08-24T16:22:01.336Z,94506.00
2022-08-24T16:26:27.425Z,94511.00
2022-08-24T16:30:39.098Z,94499.00
2022-08-24T16:34:47.751Z,94515.00
2022-08-24T16:38:51.844Z,94503.00
2022-08-24T16:42:55.619Z,94511.00
2022-08-24T16:46:57.738Z,94511.00
2022-08-24T16:50:59.935Z,94507.00
2022-08-24T16:55:02.508Z,94507.00
2022-08-24T16:59:04.760Z,94501.00
2022-08-24T17:03:08.235Z,94503.00
2022-08-24T17:07:22.596Z,94511.00
2022-08-24T17:11:25.747Z,94511.00
2022-08-24T17:15:28.184Z,94514.00
2022-08-24T17:19:31.621Z,94522.00
2022-08-24T17:23:34.426Z,94529.00
2022-08-24T17:27:37.532Z,94518.00
2022-08-24T17:31:39.969Z,94514.00
2022-08-24T17:35:42.263Z,94514.00
2022-08-24T17:39:44.894Z,94517.00
2022-08-24T17:43:47.322Z,94514.00
2022-08-24T17:47:50.821Z,94517.00
2022-08-24T17:51:53.826Z,94517.00
2022-08-24T17:55:56.035Z,94521.00
2022-08-24T17:59:58.705Z,94527.00
2022-08-24T18:04:01.018Z,94526.00
2022-08-24T18:08:04.289Z,94538.00
2022-08-24T18:12:08.094Z,94538.00
2022-08-24T18:16:16.951Z,94542.00
2022-08-24T18:20:25.846Z,94549.00
2022-08-24T18:24:32.713Z,94550.00
2022-08-24T18:28:36.019Z,94552.00
2022-08-24T18:32:40.086Z,94554.00
2022-08-24T18:36:42.484Z,94555.00
2022-08-24T18:40:52.278Z,94557.00
2022-08-24T18:44:55.901Z,94558.00
2022-08-24T18:48:59.469Z,94560.00
2022-08-24T18:53:02.441Z,94559.00
2022-08-24T18:57:07.112Z,94566.00
2022-08-24T19:01:10.166Z,94572.00
2022-08-24T19:05:20.614Z,94577.00
2022-08-24T19:09:22.709Z,94572.00
2022-08-24T19:13:24.632Z,94579.00
2022-08-24T19:17:27.175Z,94574.00
2022-08-24T19:21:31.298Z,94579.00
2022-08-24T19:25:35.371Z,94582.00
2022-08-24T19:34:03.488Z,94581.00
2022-08-24T19:38:06.021Z,94578.00
2022-08-24T19:42:10.984Z,94573.00
2022-08-24T19:46:13.301Z,94562.00
2022-08-24T19:50:21.235Z,94566.00
2022-08-24T19:54:23.980Z,94563.00
2022-08-24T19:58:36.192Z,94562.00
2022-08-24T20:02:38.382Z,94556.00
2022-08-24T20:06:41.013Z,94543.00
2022-08-24T20:10:43.286Z,94551.00
2022-08-24T20:14:45.212Z,94562.00
2022-08-24T20:18:48.337Z,94557.00
2022-08-24T20:22:51.100Z,94561.00
2022-08-24T20:26:53.646Z,94565.00
2022-08-24T20:30:55.947Z,94570.00
2022-08-24T20:34:58.285Z,94566.00
2022-08-24T20:39:01.835Z,94577.00
2022-08-24T20:43:04.181Z,94579.00
2022-08-24T20:47:06.956Z,94574.00
2022-08-24T20:51:09.165Z,94577.00
2022-08-24T20:55:14.255Z,94569.00
2022-08-24T20:59:16.764Z,94571.00
2022-08-24T21:03:19.362Z,94569.00
2022-08-24T21:07:21.645Z,94569.00
2022-08-24T21:11:23.685Z,94571.00
2022-08-24T21:15:26.388Z,94567.00
2022-08-24T21:19:30.241Z,94566.00
2022-08-24T21:23:34.350Z,94554.00
2022-08-24T21:27:39.825Z,94561.00
2022-08-24T21:32:03.187Z,94561.00
2022-08-24T21:36:05.969Z,94558.00
2022-08-24T21:40:10.308Z,94565.00
2022-08-24T21:44:12.672Z,94569.00
2022-08-24T21:48:14.931Z,94562.00
2022-08-24T21:52:17.885Z,94563.00
2022-08-24T21:56:25.575Z,94548.00
2022-08-24T22:00:28.159Z,94551.00
2022-08-24T22:04:30.733Z,94551.00
2022-08-24T22:08:32.901Z,94551.00
2022-08-24T22:12:39.359Z,94541.00
2022-08-24T22:16:41.645Z,94540.00
2022-08-24T22:20:43.768Z,94542.00
2022-08-24T22:24:46.010Z,94538.00
2022-08-24T22:28:48.258Z,94532.00
2022-08-24T22:32:50.450Z,94519.00
2022-08-24T22:36:52.904Z,94528.00
2022-08-24T22:40:56.375Z,94526.00
2022-08-24T22:45:00.072Z,94512.00
2022-08-24T22:49:04.081Z,94515.00
2022-08-24T22:53:06.773Z,94522.00
2022-08-24T22:57:09.629Z,94517.00
2022-08-24T23:01:19.673Z,94512.00
2022-08-24T23:05:22.019Z,94512.00
2022-08-24T23:09:25.057Z,94502.00
2022-08-24T23:13:28.793Z,94506.00
2022-08-24T23:17:31.278Z,94498.00
2022-08-24T23:21:33.969Z,94498.00
2022-08-24T23:25:35.930Z,94494.00
2022-08-24T23:29:39.820Z,94482.00
2022-08-24T23:33:42.151Z,94487.00
2022-08-24T23:37:45.736Z,94478.00
2022-08-24T23:41:48.681Z,94480.00
2022-08-24T23:45:53.356Z,94476.00
2022-08-24T23:49:55.705Z,94474.00
2022-08-24T23:53:58.222Z,94468.00
2022-08-24T23:58:00.823Z,94473.00
